createdAt,value
2023-04-15T00:00:10.137Z,9.75
2023-04-15T00:03:02.646Z,9.70
2023-04-15T00:05:32.600Z,9.78
2023-04-15T00:08:01.732Z,9.74
2023-04-15T00:10:30.777Z,9.69
2023-04-15T00:13:01.021Z,9.70
2023-04-15T00:15:30.135Z,9.69
2023-04-15T00:17:58.916Z,9.69
2023-04-15T00:20:28.077Z,9.70
2023-04-15T00:22:56.809Z,9.73
2023-04-15T00:25:25.947Z,9.81
2023-04-15T00:27:54.782Z,9.72
2023-04-15T00:30:25.784Z,9.84
2023-04-15T00:32:55.747Z,9.86
2023-04-15T00:35:25.567Z,9.82
2023-04-15T00:37:54.798Z,9.80
2023-04-15T00:40:26.349Z,9.84
2023-04-15T00:42:55.487Z,9.74
2023-04-15T00:45:26.770Z,9.81
2023-04-15T00:47:56.199Z,9.84
2023-04-15T00:50:25.402Z,9.83
2023-04-15T00:52:54.208Z,9.75
2023-04-15T00:55:23.351Z,9.67
2023-04-15T00:57:53.116Z,9.74
2023-04-15T01:00:22.907Z,9.86
2023-04-15T01:02:53.234Z,9.84
2023-04-15T01:05:22.743Z,9.74
2023-04-15T01:07:51.473Z,9.85
2023-04-15T01:10:20.611Z,9.73
2023-04-15T01:12:49.462Z,9.62
2023-04-15T01:15:18.573Z,9.62
2023-04-15T01:17:47.388Z,9.68
2023-04-15T01:20:18.369Z,9.71
2023-04-15T01:22:47.159Z,9.73
2023-04-15T01:25:19.571Z,9.70
2023-04-15T01:27:49.774Z,9.77
2023-04-15T01:30:18.897Z,9.73
2023-04-15T01:32:48.918Z,9.66
2023-04-15T01:35:18.304Z,9.68
2023-04-15T01:37:47.522Z,9.72
2023-04-15T01:40:19.472Z,9.69
2023-04-15T01:42:49.708Z,9.74
2023-04-15T01:45:18.895Z,9.78
2023-04-15T01:47:47.927Z,9.80
2023-04-15T01:50:17.254Z,9.73
2023-04-15T01:52:46.007Z,9.71
2023-04-15T01:55:15.495Z,9.59
2023-04-15T01:57:44.249Z,9.62
2023-04-15T02:00:15.072Z,9.55
2023-04-15T02:02:44.921Z,9.52
2023-04-15T02:05:14.658Z,9.58
2023-04-15T02:07:43.499Z,9.37
2023-04-15T02:10:13.560Z,9.34
2023-04-15T02:12:42.360Z,9.22
2023-04-15T02:15:11.918Z,9.21
2023-04-15T02:17:46.093Z,9.28
2023-04-15T02:20:17.609Z,9.13
2023-04-15T02:22:47.324Z,9.15
2023-04-15T02:25:18.138Z,9.13
2023-04-15T02:27:46.959Z,9.13
2023-04-15T02:30:18.435Z,9.13
2023-04-15T02:32:48.677Z,9.22
2023-04-15T02:35:19.867Z,9.13
2023-04-15T02:37:48.706Z,8.99
2023-04-15T02:40:17.845Z,9.23
2023-04-15T02:42:47.760Z,9.11
2023-04-15T02:45:20.490Z,9.16
2023-04-15T02:47:50.937Z,9.21
2023-04-15T02:50:20.176Z,9.18
2023-04-15T02:52:48.949Z,9.25
2023-04-15T02:55:18.162Z,9.26
2023-04-15T02:57:47.001Z,9.21
2023-04-15T03:00:16.347Z,9.13
2023-04-15T03:02:48.067Z,9.24
2023-04-15T03:05:18.692Z,9.09
2023-04-15T03:07:52.782Z,9.13
2023-04-15T03:10:22.623Z,9.20
2023-04-15T03:12:51.749Z,9.19
2023-04-15T03:15:23.596Z,9.24
2023-04-15T03:17:54.442Z,9.22
2023-04-15T03:20:25.043Z,9.17
2023-04-15T03:22:54.048Z,9.24
2023-04-15T03:25:25.368Z,9.13
2023-04-15T03:27:54.168Z,9.26
2023-04-15T03:30:23.429Z,9.18
2023-04-15T03:32:53.101Z,9.07
2023-04-15T03:35:22.489Z,9.13
2023-04-15T03:37:52.713Z,9.14
2023-04-15T03:40:22.529Z,9.05
2023-04-15T03:42:51.464Z,8.93
2023-04-15T03:45:20.638Z,8.93
2023-04-15T03:47:49.869Z,8.93
2023-04-15T03:50:18.973Z,9.07
2023-04-15T03:52:49.171Z,9.03
2023-04-15T03:55:21.497Z,9.03
2023-04-15T03:57:50.318Z,9.14
2023-04-15T04:00:19.815Z,9.13
2023-04-15T04:02:48.782Z,9.07
2023-04-15T04:05:17.975Z,9.11
2023-04-15T04:07:47.421Z,9.04
2023-04-15T04:10:16.655Z,9.10
2023-04-15T04:12:46.818Z,9.12
2023-04-15T04:15:16.036Z,9.05
2023-04-15T04:17:44.917Z,9.05
2023-04-15T04:20:14.151Z,9.08
2023-04-15T04:22:42.907Z,9.16
2023-04-15T04:25:11.998Z,9.11
2023-04-15T04:27:40.971Z,9.05
2023-04-15T04:30:11.804Z,9.15
2023-04-15T04:32:40.970Z,9.22
2023-04-15T04:35:10.519Z,9.31
2023-04-15T04:37:39.308Z,9.30
2023-04-15T04:40:09.575Z,9.30
2023-04-15T04:42:39.872Z,9.29
2023-04-15T04:45:10.246Z,9.28
2023-04-15T04:47:40.532Z,9.31
2023-04-15T04:50:10.430Z,9.40
2023-04-15T04:52:39.643Z,9.42
2023-04-15T04:55:09.587Z,9.46
2023-04-15T04:57:39.614Z,9.42
2023-04-15T05:00:09.555Z,9.31
2023-04-15T05:02:38.475Z,9.31
2023-04-15T05:05:09.800Z,9.29
2023-04-15T05:07:38.679Z,9.36
2023-04-15T05:10:08.831Z,9.37
2023-04-15T05:12:38.628Z,9.38
2023-04-15T05:15:08.381Z,9.48
2023-04-15T05:17:37.167Z,9.53
2023-04-15T05:20:06.808Z,9.45
2023-04-15T05:22:36.966Z,9.46
2023-04-15T05:25:06.537Z,9.38
2023-04-15T05:27:35.670Z,9.35
2023-04-15T05:30:05.578Z,9.40
2023-04-15T05:32:34.384Z,9.44
2023-04-15T05:35:03.566Z,9.51
2023-04-15T05:37:32.462Z,9.57
2023-04-15T05:40:03.179Z,9.57
2023-04-15T05:42:31.987Z,9.64
2023-04-15T05:45:01.248Z,9.62
2023-04-15T05:47:30.121Z,9.57
2023-04-15T05:49:59.920Z,9.74
2023-04-15T05:52:28.721Z,9.69
2023-04-15T05:54:57.812Z,9.79
2023-04-15T05:57:28.089Z,9.84
2023-04-15T05:59:57.958Z,9.91
2023-04-15T06:02:28.057Z,9.89
2023-04-15T06:04:57.721Z,9.85
2023-04-15T06:07:26.572Z,9.95
2023-04-15T06:09:55.843Z,9.97
2023-04-15T06:12:24.580Z,9.95
2023-04-15T06:14:55.064Z,10.04
2023-04-15T06:17:23.930Z,10.05
2023-04-15T06:19:55.795Z,10.11
2023-04-15T06:22:24.679Z,10.08
2023-04-15T06:24:53.733Z,10.21
2023-04-15T06:27:23.158Z,10.13
2023-04-15T06:29:52.211Z,10.15
2023-04-15T06:32:22.454Z,10.15
2023-04-15T06:34:51.764Z,10.16
2023-04-15T06:37:20.811Z,10.24
2023-04-15T06:39:49.882Z,10.32
2023-04-15T06:42:18.875Z,10.37
2023-04-15T06:44:48.008Z,10.44
2023-04-15T06:47:16.879Z,10.48
2023-04-15T06:49:47.397Z,10.40
2023-04-15T06:52:16.768Z,10.51
2023-04-15T06:54:45.865Z,10.49
2023-04-15T06:57:14.642Z,10.46
2023-04-15T06:59:44.044Z,10.43
2023-04-15T07:02:14.452Z,10.52
2023-04-15T07:04:43.773Z,10.57
2023-04-15T07:07:13.904Z,10.53
2023-04-15T07:09:43.036Z,10.62
2023-04-15T07:12:11.781Z,10.62
2023-04-15T07:14:40.922Z,10.69
2023-04-15T07:17:10.229Z,10.77
2023-04-15T07:19:39.336Z,10.77
2023-04-15T07:22:08.144Z,10.76
2023-04-15T07:24:38.652Z,10.83
2023-04-15T07:27:07.581Z,10.79
2023-04-15T07:29:36.644Z,10.67
2023-04-15T07:32:05.927Z,10.71
2023-04-15T07:34:35.122Z,10.67
2023-04-15T07:37:03.952Z,10.70
2023-04-15T07:39:33.002Z,10.73
2023-04-15T07:42:03.989Z,10.74
2023-04-15T07:44:33.260Z,10.81
2023-04-15T07:47:03.605Z,10.81
2023-04-15T07:49:32.796Z,10.80
2023-04-15T07:52:01.702Z,10.84
2023-04-15T07:54:30.757Z,10.91
2023-04-15T07:56:59.528Z,10.84
2023-04-15T07:59:33.484Z,10.88
2023-04-15T08:02:02.695Z,10.91
2023-04-15T08:04:32.645Z,10.96
2023-04-15T08:07:01.684Z,10.98
2023-04-15T08:09:30.782Z,10.99
2023-04-15T08:11:59.598Z,10.93
2023-04-15T08:14:30.164Z,10.90
2023-04-15T08:16:59.005Z,10.88
2023-04-15T08:19:28.137Z,10.80
2023-04-15T08:21:57.108Z,10.89
2023-04-15T08:24:27.472Z,10.88
2023-04-15T08:26:56.761Z,10.91
2023-04-15T08:29:25.804Z,10.90
2023-04-15T08:31:56.531Z,10.93
2023-04-15T08:34:25.679Z,10.88
2023-04-15T08:36:54.579Z,10.92
2023-04-15T08:39:23.796Z,10.97
2023-04-15T08:41:53.466Z,11.01
2023-04-15T08:44:23.945Z,11.02
2023-04-15T08:46:53.224Z,10.98
2023-04-15T08:49:26.796Z,11.03
2023-04-15T08:51:56.673Z,11.01
2023-04-15T08:54:26.028Z,11.01
2023-04-15T08:56:55.049Z,11.00
2023-04-15T08:59:24.681Z,11.11
2023-04-15T09:01:55.622Z,10.94
2023-04-15T09:04:26.378Z,10.90
2023-04-15T09:06:55.291Z,10.88
2023-04-15T09:09:24.383Z,10.90
2023-04-15T09:11:53.186Z,10.86
2023-04-15T09:14:22.256Z,10.90
2023-04-15T09:16:57.674Z,10.94
2023-04-15T09:19:28.361Z,10.89
2023-04-15T09:21:59.252Z,10.99
2023-04-15T09:24:35.540Z,10.96
2023-04-15T09:27:04.380Z,10.91
2023-04-15T09:29:33.438Z,10.90
2023-04-15T09:32:11.809Z,10.85
2023-04-15T09:34:42.341Z,10.94
2023-04-15T09:37:20.714Z,10.84
2023-04-15T09:40:00.692Z,10.95
2023-04-15T09:42:29.509Z,11.01
2023-04-15T09:45:09.369Z,11.08
2023-04-15T09:47:38.301Z,11.09
2023-04-15T09:50:09.250Z,11.14
2023-04-15T09:52:43.116Z,11.07
2023-04-15T09:55:12.687Z,11.06
2023-04-15T09:57:42.578Z,11.03
2023-04-15T10:00:12.110Z,11.06
2023-04-15T10:02:41.519Z,11.10
2023-04-15T10:05:15.091Z,11.14
2023-04-15T10:07:43.992Z,11.22
2023-04-15T10:10:14.091Z,11.14
2023-04-15T10:12:43.422Z,11.24
2023-04-15T10:15:15.801Z,11.28
2023-04-15T10:17:45.536Z,11.32
2023-04-15T10:20:16.180Z,11.32
2023-04-15T10:22:46.567Z,11.31
2023-04-15T10:25:16.509Z,11.34
2023-04-15T10:27:45.372Z,11.26
2023-04-15T10:30:14.693Z,11.40
2023-04-15T10:32:43.929Z,11.41
2023-04-15T10:35:13.210Z,11.45
2023-04-15T10:37:43.417Z,11.53
2023-04-15T10:40:25.604Z,11.50
2023-04-15T10:42:54.848Z,11.55
2023-04-15T10:45:27.340Z,11.51
2023-04-15T10:47:56.747Z,11.57
2023-04-15T10:50:28.295Z,11.55
2023-04-15T10:52:58.668Z,11.50
2023-04-15T10:55:28.625Z,11.64
2023-04-15T10:58:01.046Z,11.61
2023-04-15T11:00:30.719Z,11.66
2023-04-15T11:03:00.465Z,11.62
2023-04-15T11:05:44.591Z,11.64
2023-04-15T11:08:15.286Z,11.53
2023-04-15T11:10:56.745Z,11.57
2023-04-15T11:13:28.420Z,11.55
2023-04-15T11:15:59.375Z,11.50
2023-04-15T11:18:30.671Z,11.39
2023-04-15T11:21:01.203Z,11.37
2023-04-15T11:23:32.724Z,11.42
2023-04-15T11:26:02.668Z,11.45
2023-04-15T11:28:32.056Z,11.47
2023-04-15T11:31:06.874Z,11.43
2023-04-15T11:33:35.720Z,11.48
2023-04-15T11:36:05.292Z,11.57
2023-04-15T11:38:38.055Z,11.52
2023-04-15T11:41:07.444Z,11.64
2023-04-15T11:43:36.458Z,11.63
2023-04-15T11:46:05.718Z,11.68
2023-04-15T11:48:35.819Z,11.65
2023-04-15T11:51:06.053Z,11.80
2023-04-15T11:53:41.058Z,11.87
2023-04-15T11:56:11.157Z,11.91
2023-04-15T11:58:40.714Z,11.83
2023-04-15T12:01:09.911Z,11.85
2023-04-15T12:03:39.620Z,11.89
2023-04-15T12:06:19.322Z,11.75
2023-04-15T12:08:58.548Z,11.87
2023-04-15T12:11:34.988Z,11.89
2023-04-15T12:14:08.526Z,11.92
2023-04-15T12:16:47.957Z,11.96
2023-04-15T12:19:19.637Z,11.90
2023-04-15T12:21:49.448Z,11.83
2023-04-15T12:24:21.881Z,11.97
2023-04-15T12:26:51.969Z,11.73
2023-04-15T12:29:21.273Z,11.78
2023-04-15T12:31:51.801Z,11.63
2023-04-15T12:34:26.908Z,11.78
2023-04-15T12:36:56.452Z,11.44
2023-04-15T12:39:28.690Z,11.55
2023-04-15T12:42:00.342Z,11.47
2023-04-15T12:44:29.842Z,11.44
2023-04-15T12:46:59.984Z,11.55
2023-04-15T12:49:29.276Z,11.39
2023-04-15T12:51:59.610Z,11.46
2023-04-15T12:54:29.929Z,11.49
2023-04-15T12:56:59.710Z,11.31
2023-04-15T12:59:29.458Z,11.44
2023-04-15T13:02:00.978Z,11.24
2023-04-15T13:04:31.627Z,11.17
2023-04-15T13:07:01.049Z,11.31
2023-04-15T13:09:31.247Z,11.27
2023-04-15T13:12:00.524Z,11.24
2023-04-15T13:14:29.321Z,11.33
2023-04-15T13:16:58.442Z,11.20
2023-04-15T13:19:27.277Z,11.08
2023-04-15T13:21:56.445Z,11.01
2023-04-15T13:24:25.763Z,10.98
2023-04-15T13:26:59.314Z,11.00
2023-04-15T13:29:28.314Z,10.93
2023-04-15T13:31:57.762Z,10.88
2023-04-15T13:34:26.676Z,11.04
2023-04-15T13:36:55.815Z,11.04
2023-04-15T13:39:24.672Z,11.00
2023-04-15T13:41:53.812Z,10.88
2023-04-15T13:44:24.013Z,10.94
2023-04-15T13:46:53.687Z,11.00
2023-04-15T13:49:22.473Z,10.99
2023-04-15T13:51:52.040Z,10.83
2023-04-15T13:54:20.876Z,10.81
2023-04-15T13:56:49.931Z,10.73
2023-04-15T13:59:18.798Z,10.87
2023-04-15T14:01:49.421Z,10.88
2023-04-15T14:04:18.462Z,10.90
2023-04-15T14:06:47.604Z,10.82
2023-04-15T14:09:16.514Z,10.80
2023-04-15T14:11:45.607Z,10.81
2023-04-15T14:14:16.249Z,10.86
2023-04-15T14:16:45.612Z,10.69
2023-04-15T14:19:15.961Z,10.78
2023-04-15T14:21:45.070Z,10.72
2023-04-15T14:24:13.858Z,10.69
2023-04-15T14:26:44.658Z,10.71
2023-04-15T14:29:13.624Z,10.81
2023-04-15T14:31:44.572Z,10.69
2023-04-15T14:34:34.856Z,10.80
2023-04-15T14:37:04.156Z,10.75
2023-04-15T14:39:32.917Z,10.81
2023-04-15T14:42:02.078Z,10.68
2023-04-15T14:47:01.599Z,10.66
2023-04-15T14:49:31.881Z,10.72
2023-04-15T14:52:02.541Z,10.74
2023-04-15T14:54:31.804Z,10.87
2023-04-15T14:57:01.822Z,10.81
2023-04-15T14:59:30.778Z,10.81
2023-04-15T15:02:00.031Z,10.74
2023-04-15T15:04:29.014Z,10.71
2023-04-15T15:06:58.543Z,10.68
2023-04-15T15:09:29.258Z,10.66
2023-04-15T15:11:58.403Z,10.81
2023-04-15T15:14:27.853Z,10.72
2023-04-15T15:16:56.986Z,10.71
2023-04-15T15:19:25.802Z,10.58
2023-04-15T15:21:54.882Z,10.66
2023-04-15T15:24:23.749Z,10.53
2023-04-15T15:26:54.239Z,10.57
2023-04-15T15:29:23.163Z,10.46
2023-04-15T15:31:52.294Z,10.38
2023-04-15T15:34:21.131Z,10.49
2023-04-15T15:36:50.457Z,10.38
2023-04-15T15:39:19.304Z,10.40
2023-04-15T15:41:50.361Z,10.28
2023-04-15T15:44:20.666Z,10.29
2023-04-15T15:46:51.201Z,10.25
2023-04-15T15:49:20.486Z,10.29
2023-04-15T15:51:50.077Z,10.35
2023-04-15T15:54:19.302Z,10.37
2023-04-15T15:56:48.392Z,10.27
2023-04-15T15:59:17.464Z,10.43
2023-04-15T16:01:48.391Z,10.50
2023-04-15T16:04:17.622Z,10.26
2023-04-15T16:06:46.850Z,10.27
2023-04-15T16:09:16.210Z,10.38
2023-04-15T16:11:45.391Z,10.39
2023-04-15T16:14:14.834Z,10.37
2023-04-15T16:16:44.156Z,10.46
2023-04-15T16:19:14.435Z,10.56
2023-04-15T16:21:43.835Z,10.50
2023-04-15T16:24:12.684Z,10.43
2023-04-15T16:26:41.938Z,10.47
2023-04-15T16:29:10.869Z,10.44
2023-04-15T16:31:41.511Z,10.53
2023-04-15T16:34:10.746Z,10.50
2023-04-15T16:36:41.624Z,10.42
2023-04-15T16:39:10.438Z,10.41
2023-04-15T16:41:39.676Z,10.48
2023-04-15T16:44:09.162Z,10.27
2023-04-15T16:46:40.328Z,10.35
2023-04-15T16:49:10.115Z,10.37
2023-04-15T16:51:39.218Z,10.21
2023-04-15T16:54:10.087Z,10.21
2023-04-15T16:56:39.270Z,10.19
2023-04-15T16:59:08.026Z,9.99
2023-04-15T17:01:37.412Z,10.05
2023-04-15T17:04:06.695Z,10.09
2023-04-15T17:06:35.896Z,10.17
2023-04-15T17:09:05.115Z,10.02
2023-04-15T17:11:38.345Z,10.16
2023-04-15T17:14:08.202Z,10.19
2023-04-15T17:16:37.450Z,10.14
2023-04-15T17:19:06.588Z,10.16
2023-04-15T17:21:36.810Z,10.08
2023-04-15T17:24:06.789Z,10.00
2023-04-15T17:26:37.362Z,10.13
2023-04-15T17:29:06.452Z,10.18
2023-04-15T17:31:35.888Z,10.20
2023-04-15T17:34:10.729Z,10.10
2023-04-15T17:36:40.810Z,10.15
2023-04-15T17:39:10.053Z,10.12
2023-04-15T17:41:41.299Z,10.01
2023-04-15T17:44:10.194Z,10.05
2023-04-15T17:46:39.481Z,10.04
2023-04-15T17:49:08.435Z,10.02
2023-04-15T17:51:38.394Z,10.13
2023-04-15T17:54:10.014Z,10.05
2023-04-15T17:56:39.194Z,10.05
2023-04-15T17:59:10.161Z,9.94
2023-04-15T18:01:39.485Z,10.01
2023-04-15T18:04:09.736Z,9.97
2023-04-15T18:06:39.104Z,9.90
2023-04-15T18:09:08.802Z,9.84
2023-04-15T18:11:39.143Z,9.89
2023-04-15T18:14:09.937Z,9.83
2023-04-15T18:16:43.045Z,9.69
2023-04-15T18:19:12.225Z,9.69
2023-04-15T18:21:41.406Z,9.76
2023-04-15T18:24:11.933Z,9.71
2023-04-15T18:26:43.189Z,9.71
2023-04-15T18:29:13.855Z,9.69
2023-04-15T18:31:43.090Z,9.82
2023-04-15T18:34:11.964Z,9.72
2023-04-15T18:36:41.198Z,9.85
2023-04-15T18:39:10.497Z,9.78
2023-04-15T18:41:39.660Z,9.76
2023-04-15T18:44:08.477Z,9.73
2023-04-15T18:46:39.021Z,9.73
2023-04-15T18:49:08.209Z,9.70
2023-04-15T18:51:37.378Z,9.65
2023-04-15T18:54:06.285Z,9.66
2023-04-15T18:56:35.372Z,9.65
2023-04-15T18:59:09.247Z,9.70
2023-04-15T19:01:54.917Z,9.71
2023-04-15T19:04:23.845Z,9.68
2023-04-15T19:06:53.086Z,9.71
2023-04-15T19:09:21.931Z,9.84
2023-04-15T19:11:51.107Z,9.77
2023-04-15T19:14:20.108Z,9.66
2023-04-15T19:16:49.431Z,9.57
2023-04-15T19:19:22.007Z,9.60
2023-04-15T19:21:53.864Z,9.58
2023-04-15T19:24:22.817Z,9.62
2023-04-15T19:26:51.929Z,9.57
2023-04-15T19:29:22.264Z,9.70
2023-04-15T19:31:53.592Z,9.66
2023-04-15T19:34:25.071Z,9.51
2023-04-15T19:36:54.441Z,9.49
2023-04-15T19:39:23.451Z,9.50
2023-04-15T19:41:55.282Z,9.59
2023-04-15T19:44:24.442Z,9.55
2023-04-15T19:46:53.694Z,9.61
2023-04-15T19:49:22.626Z,9.58
2023-04-15T19:51:53.099Z,9.63
2023-04-15T19:54:22.839Z,9.56
2023-04-15T19:56:51.956Z,9.50
2023-04-15T19:59:20.796Z,9.57
2023-04-15T20:01:49.934Z,9.57
2023-04-15T20:04:18.983Z,9.43
2023-04-15T20:06:48.208Z,9.29
2023-04-15T20:09:18.465Z,9.25
2023-04-15T20:12:46.284Z,9.15
2023-04-15T20:14:36.515Z,9.20
2023-04-15T20:17:05.694Z,9.32
2023-04-15T20:19:34.543Z,9.30
2023-04-15T20:22:03.689Z,9.16
2023-04-15T20:24:34.022Z,9.21
2023-04-15T20:27:04.062Z,9.30
2023-04-15T20:29:32.836Z,9.15
2023-04-15T20:32:02.163Z,9.13
2023-04-15T20:34:31.421Z,9.17
2023-04-15T20:37:00.703Z,9.19
2023-04-15T20:39:30.162Z,9.13
2023-04-15T20:42:01.338Z,9.10
2023-04-15T20:44:30.349Z,8.95
2023-04-15T20:46:59.432Z,8.97
2023-04-15T20:49:28.263Z,9.02
2023-04-15T20:51:57.358Z,8.98
2023-04-15T20:54:26.188Z,8.95
2023-04-15T20:56:56.388Z,8.80
2023-04-15T20:59:26.788Z,8.86
2023-04-15T21:01:58.073Z,8.95
2023-04-15T21:04:28.327Z,8.81
2023-04-15T21:06:59.183Z,8.96
2023-04-15T21:09:32.006Z,9.05
2023-04-15T21:12:02.148Z,9.00
2023-04-15T21:14:32.672Z,9.04
2023-04-15T21:17:07.794Z,9.00
2023-04-15T21:19:40.759Z,8.95
2023-04-15T21:22:13.084Z,8.78
2023-04-15T21:24:44.410Z,8.93
2023-04-15T21:27:14.412Z,8.82
2023-04-15T21:29:44.719Z,8.87
2023-04-15T21:32:14.064Z,8.85
2023-04-15T21:34:42.833Z,8.87
2023-04-15T21:37:11.996Z,8.87
2023-04-15T21:39:40.764Z,8.97
2023-04-15T21:42:09.932Z,8.92
2023-04-15T21:44:38.725Z,8.87
2023-04-15T21:47:09.292Z,8.83
2023-04-15T21:49:38.290Z,8.75
2023-04-15T21:52:07.376Z,8.80
2023-04-15T21:54:38.083Z,8.81
2023-04-15T21:57:07.236Z,8.74
2023-04-15T21:59:35.959Z,8.62
2023-04-15T22:02:05.168Z,8.75
2023-04-15T22:04:35.631Z,8.72
2023-04-15T22:07:04.770Z,8.70
2023-04-15T22:09:33.526Z,8.73
2023-04-15T22:12:04.792Z,8.62
2023-04-15T22:14:33.591Z,8.69
2023-04-15T22:17:02.871Z,8.68
2023-04-15T22:19:31.836Z,8.62
2023-04-15T22:22:02.294Z,8.60
2023-04-15T22:24:40.648Z,8.78
2023-04-15T22:27:10.122Z,8.68
2023-04-15T22:29:38.995Z,8.72
2023-04-15T22:32:08.361Z,8.57
2023-04-15T22:34:37.121Z,8.59
2023-04-15T22:37:07.617Z,8.56
2023-04-15T22:39:36.464Z,8.70
2023-04-15T22:42:05.544Z,8.67
2023-04-15T22:44:34.407Z,8.70
2023-04-15T22:47:03.487Z,8.70
2023-04-15T22:49:32.272Z,8.83
2023-04-15T22:52:01.350Z,8.64
2023-04-15T22:54:31.557Z,8.77
2023-04-15T22:57:01.147Z,8.78
2023-04-15T22:59:30.081Z,8.72
2023-04-15T23:01:59.533Z,8.71
2023-04-15T23:04:28.606Z,8.53
2023-04-15T23:06:57.916Z,8.61
2023-04-15T23:09:27.287Z,8.68
2023-04-15T23:11:57.984Z,8.56
2023-04-15T23:14:28.126Z,8.65
2023-04-15T23:16:58.509Z,8.57
2023-04-15T23:19:27.317Z,8.69
2023-04-15T23:21:56.382Z,8.73
2023-04-15T23:24:25.277Z,8.60
2023-04-15T23:26:54.347Z,8.66
2023-04-15T23:29:24.689Z,8.58
2023-04-15T23:31:53.931Z,8.63
2023-04-15T23:34:22.732Z,8.55
2023-04-15T23:36:51.965Z,8.64
2023-04-15T23:39:20.787Z,8.56
2023-04-15T23:41:49.903Z,8.42
2023-04-15T23:44:18.697Z,8.55
2023-04-15T23:46:49.256Z,8.55
2023-04-15T23:49:20.096Z,8.54
2023-04-15T23:51:49.538Z,8.64
2023-04-15T23:54:18.316Z,8.60
2023-04-15T23:56:48.213Z,8.59
2023-04-15T23:59:17.029Z,8.51
